sensor_id;sensor_type;location;lat;lon;timestamp;pressure;altitude;pressure_sealevel;temperature;humidity
6345;BME280;3205;42.666;23.264;2022-11-20T00:01:04;93607.00;;;18.17;nan
6345;BME280;3205;42.666;23.264;2022-11-20T00:03:30;93608.09;;;18.23;nan
6345;BME280;3205;42.666;23.264;2022-11-20T00:05:59;93609.50;;;18.35;nan
6345;BME280;3205;42.666;23.264;2022-11-20T00:08:26;93616.41;;;18.32;nan
6345;BME280;3205;42.666;23.264;2022-11-20T00:10:53;93622.22;;;18.27;nan
6345;BME280;3205;42.666;23.264;2022-11-20T00:13:19;93628.69;;;18.30;nan
6345;BME280;3205;42.666;23.264;2022-11-20T00:15:48;93620.25;;;18.31;nan
6345;BME280;3205;42.666;23.264;2022-11-20T00:18:14;93606.63;;;18.15;nan
6345;BME280;3205;42.666;23.264;2022-11-20T00:20:41;93610.09;;;18.12;nan
6345;BME280;3205;42.666;23.264;2022-11-20T00:23:08;93586.72;;;18.20;nan
6345;BME280;3205;42.666;23.264;2022-11-20T00:25:34;93603.41;;;18.34;nan
6345;BME280;3205;42.666;23.264;2022-11-20T00:28:01;93614.84;;;18.35;nan
6345;BME280;3205;42.666;23.264;2022-11-20T00:30:28;93615.53;;;18.42;nan
6345;BME280;3205;42.666;23.264;2022-11-20T00:32:57;93633.53;;;18.42;nan
6345;BME280;3205;42.666;23.264;2022-11-20T00:35:25;93574.03;;;18.31;nan
6345;BME280;3205;42.666;23.264;2022-11-20T00:37:51;93582.22;;;18.47;nan
6345;BME280;3205;42.666;23.264;2022-11-20T00:40:18;93629.34;;;18.37;nan
6345;BME280;3205;42.666;23.264;2022-11-20T00:42:45;93580.94;;;18.25;nan
6345;BME280;3205;42.666;23.264;2022-11-20T00:45:11;93607.34;;;18.23;nan
6345;BME280;3205;42.666;23.264;2022-11-20T00:47:38;93654.72;;;18.19;nan
6345;BME280;3205;42.666;23.264;2022-11-20T00:50:07;93632.81;;;18.38;nan
6345;BME280;3205;42.666;23.264;2022-11-20T00:52:35;93637.81;;;18.32;nan
6345;BME280;3205;42.666;23.264;2022-11-20T00:55:02;93620.72;;;18.23;nan
6345;BME280;3205;42.666;23.264;2022-11-20T00:57:28;93643.34;;;18.11;nan
6345;BME280;3205;42.666;23.264;2022-11-20T00:59:55;93621.19;;;18.11;nan
6345;BME280;3205;42.666;23.264;2022-11-20T01:02:22;93628.16;;;18.01;nan
6345;BME280;3205;42.666;23.264;2022-11-20T01:04:49;93624.28;;;18.06;nan
6345;BME280;3205;42.666;23.264;2022-11-20T01:07:17;93644.16;;;18.05;nan
6345;BME280;3205;42.666;23.264;2022-11-20T01:09:43;93617.81;;;18.03;nan
6345;BME280;3205;42.666;23.264;2022-11-20T01:12:10;93614.44;;;17.99;nan
6345;BME280;3205;42.666;23.264;2022-11-20T01:14:37;93599.97;;;17.93;nan
6345;BME280;3205;42.666;23.264;2022-11-20T01:17:04;93587.03;;;17.88;nan
6345;BME280;3205;42.666;23.264;2022-11-20T01:19:31;93603.47;;;17.87;nan
6345;BME280;3205;42.666;23.264;2022-11-20T01:21:57;93603.06;;;17.88;nan
6345;BME280;3205;42.666;23.264;2022-11-20T01:24:26;93574.78;;;17.91;nan
6345;BME280;3205;42.666;23.264;2022-11-20T01:26:52;93574.31;;;17.99;nan
6345;BME280;3205;42.666;23.264;2022-11-20T01:29:22;93592.16;;;18.09;nan
6345;BME280;3205;42.666;23.264;2022-11-20T01:31:49;93591.69;;;18.21;nan
6345;BME280;3205;42.666;23.264;2022-11-20T01:34:18;93595.53;;;18.17;nan
6345;BME280;3205;42.666;23.264;2022-11-20T01:36:48;93570.41;;;18.07;nan
6345;BME280;3205;42.666;23.264;2022-11-20T01:39:16;93581.91;;;18.04;nan
6345;BME280;3205;42.666;23.264;2022-11-20T01:41:48;93572.38;;;18.03;nan
6345;BME280;3205;42.666;23.264;2022-11-20T01:44:57;93580.66;;;18.16;nan
6345;BME280;3205;42.666;23.264;2022-11-20T01:47:28;93565.13;;;18.00;nan
6345;BME280;3205;42.666;23.264;2022-11-20T01:50:03;93593.75;;;18.03;nan
6345;BME280;3205;42.666;23.264;2022-11-20T01:52:34;93610.25;;;17.98;nan
6345;BME280;3205;42.666;23.264;2022-11-20T01:55:07;93592.00;;;17.90;nan
6345;BME280;3205;42.666;23.264;2022-11-20T01:57:37;93590.91;;;17.81;nan
6345;BME280;3205;42.666;23.264;2022-11-20T02:00:07;93600.00;;;17.90;nan
6345;BME280;3205;42.666;23.264;2022-11-20T02:02:36;93597.44;;;17.80;nan
6345;BME280;3205;42.666;23.264;2022-11-20T02:05:10;93600.13;;;17.76;nan
6345;BME280;3205;42.666;23.264;2022-11-20T02:07:39;93588.00;;;17.65;nan
6345;BME280;3205;42.666;23.264;2022-11-20T02:10:06;93598.75;;;17.58;nan
6345;BME280;3205;42.666;23.264;2022-11-20T02:12:33;93595.69;;;17.59;nan
6345;BME280;3205;42.666;23.264;2022-11-20T02:15:19;93608.69;;;17.57;nan
6345;BME280;3205;42.666;23.264;2022-11-20T02:17:45;93624.41;;;17.48;nan
6345;BME280;3205;42.666;23.264;2022-11-20T02:20:13;93609.97;;;17.39;nan
6345;BME280;3205;42.666;23.264;2022-11-20T02:22:45;93616.44;;;17.45;nan
6345;BME280;3205;42.666;23.264;2022-11-20T02:25:18;93599.91;;;17.57;nan
6345;BME280;3205;42.666;23.264;2022-11-20T02:27:46;93596.16;;;17.51;nan
6345;BME280;3205;42.666;23.264;2022-11-20T02:30:13;93606.50;;;17.42;nan
6345;BME280;3205;42.666;23.264;2022-11-20T02:32:40;93614.16;;;17.40;nan
6345;BME280;3205;42.666;23.264;2022-11-20T02:35:08;93614.94;;;17.37;nan
6345;BME280;3205;42.666;23.264;2022-11-20T02:37:37;93619.44;;;17.47;nan
6345;BME280;3205;42.666;23.264;2022-11-20T02:40:07;93616.34;;;17.55;nan
6345;BME280;3205;42.666;23.264;2022-11-20T02:42:36;93628.25;;;17.47;nan
6345;BME280;3205;42.666;23.264;2022-11-20T02:45:03;93608.00;;;17.46;nan
6345;BME280;3205;42.666;23.264;2022-11-20T02:47:30;93619.84;;;17.45;nan
6345;BME280;3205;42.666;23.264;2022-11-20T02:49:57;93627.84;;;17.49;nan
6345;BME280;3205;42.666;23.264;2022-11-20T02:52:25;93622.81;;;17.58;nan
6345;BME280;3205;42.666;23.264;2022-11-20T02:54:53;93625.13;;;17.56;nan
6345;BME280;3205;42.666;23.264;2022-11-20T02:57:20;93617.06;;;17.59;nan
6345;BME280;3205;42.666;23.264;2022-11-20T02:59:48;93610.91;;;17.66;nan
6345;BME280;3205;42.666;23.264;2022-11-20T03:02:15;93632.34;;;17.59;nan
6345;BME280;3205;42.666;23.264;2022-11-20T03:04:41;93657.50;;;17.65;nan
6345;BME280;3205;42.666;23.264;2022-11-20T03:07:08;93627.41;;;17.54;nan
6345;BME280;3205;42.666;23.264;2022-11-20T03:09:35;93622.88;;;17.51;nan
6345;BME280;3205;42.666;23.264;2022-11-20T03:12:02;93642.28;;;17.55;nan
6345;BME280;3205;42.666;23.264;2022-11-20T03:14:29;93604.84;;;17.58;nan
6345;BME280;3205;42.666;23.264;2022-11-20T03:16:57;93614.75;;;17.65;nan
6345;BME280;3205;42.666;23.264;2022-11-20T03:19:24;93631.53;;;17.65;nan
6345;BME280;3205;42.666;23.264;2022-11-20T03:21:51;93640.66;;;17.68;nan
6345;BME280;3205;42.666;23.264;2022-11-20T03:24:17;93621.66;;;17.59;nan
6345;BME280;3205;42.666;23.264;2022-11-20T03:26:44;93635.03;;;17.59;nan
6345;BME280;3205;42.666;23.264;2022-11-20T03:29:11;93614.75;;;17.65;nan
6345;BME280;3205;42.666;23.264;2022-11-20T03:31:39;93618.50;;;17.71;nan
6345;BME280;3205;42.666;23.264;2022-11-20T03:34:09;93626.94;;;17.69;nan
6345;BME280;3205;42.666;23.264;2022-11-20T03:36:37;93613.94;;;17.68;nan
6345;BME280;3205;42.666;23.264;2022-11-20T03:39:04;93634.97;;;17.66;nan
6345;BME280;3205;42.666;23.264;2022-11-20T03:41:35;93639.94;;;17.64;nan
6345;BME280;3205;42.666;23.264;2022-11-20T03:44:04;93655.19;;;17.67;nan
6345;BME280;3205;42.666;23.264;2022-11-20T03:46:32;93639.94;;;17.64;nan
6345;BME280;3205;42.666;23.264;2022-11-20T03:49:01;93659.38;;;17.68;nan
6345;BME280;3205;42.666;23.264;2022-11-20T03:51:31;93643.00;;;17.66;nan
6345;BME280;3205;42.666;23.264;2022-11-20T03:54:00;93654.47;;;17.63;nan
6345;BME280;3205;42.666;23.264;2022-11-20T03:56:28;93658.28;;;17.62;nan
6345;BME280;3205;42.666;23.264;2022-11-20T03:58:56;93663.31;;;17.53;nan
6345;BME280;3205;42.666;23.264;2022-11-20T04:01:24;93666.41;;;17.48;nan
6345;BME280;3205;42.666;23.264;2022-11-20T04:03:52;93667.91;;;17.49;nan
6345;BME280;3205;42.666;23.264;2022-11-20T04:06:20;93668.69;;;17.49;nan
6345;BME280;3205;42.666;23.264;2022-11-20T04:08:49;93674.03;;;17.49;nan
6345;BME280;3205;42.666;23.264;2022-11-20T04:11:17;93680.56;;;17.45;nan
6345;BME280;3205;42.666;23.264;2022-11-20T04:13:46;93675.19;;;17.48;nan
6345;BME280;3205;42.666;23.264;2022-11-20T04:16:15;93655.31;;;17.53;nan
6345;BME280;3205;42.666;23.264;2022-11-20T04:18:43;93667.19;;;17.45;nan
6345;BME280;3205;42.666;23.264;2022-11-20T04:21:10;93659.53;;;17.43;nan
6345;BME280;3205;42.666;23.264;2022-11-20T04:23:38;93655.69;;;17.48;nan
6345;BME280;3205;42.666;23.264;2022-11-20T04:26:08;93663.75;;;17.44;nan
6345;BME280;3205;42.666;23.264;2022-11-20T04:28:36;93678.66;;;17.42;nan
6345;BME280;3205;42.666;23.264;2022-11-20T04:31:04;93675.94;;;17.49;nan
6345;BME280;3205;42.666;23.264;2022-11-20T04:33:31;93659.91;;;17.49;nan
6345;BME280;3205;42.666;23.264;2022-11-20T04:36:03;93673.28;;;17.45;nan
6345;BME280;3205;42.666;23.264;2022-11-20T04:38:30;93664.16;;;17.39;nan
6345;BME280;3205;42.666;23.264;2022-11-20T04:40:58;93660.00;;;17.35;nan
6345;BME280;3205;42.666;23.264;2022-11-20T04:43:27;93669.94;;;17.34;nan
6345;BME280;3205;42.666;23.264;2022-11-20T04:45:54;93667.28;;;17.24;nan
6345;BME280;3205;42.666;23.264;2022-11-20T04:48:22;93653.94;;;17.27;nan
6345;BME280;3205;42.666;23.264;2022-11-20T04:50:49;93655.47;;;17.28;nan
6345;BME280;3205;42.666;23.264;2022-11-20T04:53:16;93657.38;;;17.28;nan
6345;BME280;3205;42.666;23.264;2022-11-20T04:55:43;93665.75;;;17.26;nan
6345;BME280;3205;42.666;23.264;2022-11-20T04:58:10;93651.25;;;17.24;nan
6345;BME280;3205;42.666;23.264;2022-11-20T05:00:39;93646.28;;;17.22;nan
6345;BME280;3205;42.666;23.264;2022-11-20T05:03:06;93639.81;;;17.27;nan
6345;BME280;3205;42.666;23.264;2022-11-20T05:05:33;93613.81;;;17.38;nan
6345;BME280;3205;42.666;23.264;2022-11-20T05:08:00;93630.56;;;17.42;nan
6345;BME280;3205;42.666;23.264;2022-11-20T05:10:27;93626.00;;;17.42;nan
6345;BME280;3205;42.666;23.264;2022-11-20T05:12:54;93619.16;;;17.38;nan
6345;BME280;3205;42.666;23.264;2022-11-20T05:15:21;93602.72;;;17.39;nan
6345;BME280;3205;42.666;23.264;2022-11-20T05:17:49;93619.84;;;17.45;nan
6345;BME280;3205;42.666;23.264;2022-11-20T05:20:16;93588.59;;;17.42;nan
6345;BME280;3205;42.666;23.264;2022-11-20T05:22:44;93631.28;;;17.49;nan
6345;BME280;3205;42.666;23.264;2022-11-20T05:25:11;93604.13;;;17.54;nan
6345;BME280;3205;42.666;23.264;2022-11-20T05:27:38;93588.13;;;17.51;nan
6345;BME280;3205;42.666;23.264;2022-11-20T05:30:06;93600.31;;;17.55;nan
6345;BME280;3205;42.666;23.264;2022-11-20T05:32:33;93604.81;;;17.62;nan
6345;BME280;3205;42.666;23.264;2022-11-20T05:35:01;93617.91;;;17.53;nan
6345;BME280;3205;42.666;23.264;2022-11-20T05:37:28;93603.31;;;17.61;nan
6345;BME280;3205;42.666;23.264;2022-11-20T05:39:54;93633.13;;;17.56;nan
6345;BME280;3205;42.666;23.264;2022-11-20T05:42:22;93635.44;;;17.54;nan
6345;BME280;3205;42.666;23.264;2022-11-20T05:44:58;93585.81;;;17.56;nan
6345;BME280;3205;42.666;23.264;2022-11-20T05:47:25;93619.69;;;17.66;nan
6345;BME280;3205;42.666;23.264;2022-11-20T05:49:52;93640.38;;;17.59;nan
6345;BME280;3205;42.666;23.264;2022-11-20T05:52:21;93601.38;;;17.65;nan
6345;BME280;3205;42.666;23.264;2022-11-20T05:54:49;93626.94;;;17.69;nan
6345;BME280;3205;42.666;23.264;2022-11-20T05:57:16;93633.03;;;17.70;nan
6345;BME280;3205;42.666;23.264;2022-11-20T05:59:43;93634.13;;;17.76;nan
6345;BME280;3205;42.666;23.264;2022-11-20T06:02:09;93672.34;;;17.73;nan
6345;BME280;3205;42.666;23.264;2022-11-20T06:04:36;93664.28;;;17.76;nan
6345;BME280;3205;42.666;23.264;2022-11-20T06:07:04;93666.53;;;17.81;nan
6345;BME280;3205;42.666;23.264;2022-11-20T06:09:33;93686.84;;;17.75;nan
6345;BME280;3205;42.666;23.264;2022-11-20T06:12:00;93668.09;;;17.79;nan
6345;BME280;3205;42.666;23.264;2022-11-20T06:14:26;93708.53;;;17.81;nan
6345;BME280;3205;42.666;23.264;2022-11-20T06:16:53;93677.94;;;17.88;nan
6345;BME280;3205;42.666;23.264;2022-11-20T06:19:20;93673.28;;;17.99;nan
6345;BME280;3205;42.666;23.264;2022-11-20T06:21:47;93673.19;;;18.10;nan
6345;BME280;3205;42.666;23.264;2022-11-20T06:24:16;93686.84;;;18.19;nan
6345;BME280;3205;42.666;23.264;2022-11-20T06:26:44;93687.91;;;18.28;nan
6345;BME280;3205;42.666;23.264;2022-11-20T06:29:12;93689.72;;;18.42;nan
6345;BME280;3205;42.666;23.264;2022-11-20T06:31:39;93696.72;;;18.65;nan
6345;BME280;3205;42.666;23.264;2022-11-20T06:34:08;93696.47;;;19.76;nan
6345;BME280;3205;42.666;23.264;2022-11-20T06:36:34;93685.69;;;20.28;nan
6345;BME280;3205;42.666;23.264;2022-11-20T06:39:01;93698.91;;;20.85;nan
6345;BME280;3205;42.666;23.264;2022-11-20T06:41:28;93693.72;;;21.32;nan
6345;BME280;3205;42.666;23.264;2022-11-20T06:43:56;93688.94;;;21.40;nan
6345;BME280;3205;42.666;23.264;2022-11-20T06:46:23;93696.94;;;21.63;nan
6345;BME280;3205;42.666;23.264;2022-11-20T06:48:50;93691.78;;;22.51;nan
6345;BME280;3205;42.666;23.264;2022-11-20T06:51:18;93691.78;;;22.79;nan
6345;BME280;3205;42.666;23.264;2022-11-20T06:53:45;93707.09;;;22.54;nan
6345;BME280;3205;42.666;23.264;2022-11-20T06:56:12;93694.94;;;22.90;nan
6345;BME280;3205;42.666;23.264;2022-11-20T06:58:38;93705.59;;;23.38;nan
6345;BME280;3205;42.666;23.264;2022-11-20T07:01:09;93711.75;;;24.75;nan
6345;BME280;3205;42.666;23.264;2022-11-20T07:03:36;93724.47;;;24.87;nan
6345;BME280;3205;42.666;23.264;2022-11-20T07:06:04;93719.78;;;24.66;nan
6345;BME280;3205;42.666;23.264;2022-11-20T07:08:31;93703.09;;;23.97;nan
6345;BME280;3205;42.666;23.264;2022-11-20T07:10:59;93713.66;;;23.25;nan
6345;BME280;3205;42.666;23.264;2022-11-20T07:13:26;93698.41;;;21.99;nan
6345;BME280;3205;42.666;23.264;2022-11-20T07:15:53;93715.66;;;21.11;nan
6345;BME280;3205;42.666;23.264;2022-11-20T07:18:21;93701.84;;;20.48;nan
6345;BME280;3205;42.666;23.264;2022-11-20T07:20:50;93694.97;;;20.01;nan
6345;BME280;3205;42.666;23.264;2022-11-20T07:23:16;93698.13;;;19.40;nan
6345;BME280;3205;42.666;23.264;2022-11-20T07:25:45;93696.22;;;19.40;nan
6345;BME280;3205;42.666;23.264;2022-11-20T07:28:12;93697.34;;;19.13;nan
6345;BME280;3205;42.666;23.264;2022-11-20T07:30:39;93702.75;;;19.10;nan
6345;BME280;3205;42.666;23.264;2022-11-20T07:33:05;93677.53;;;19.04;nan
6345;BME280;3205;42.666;23.264;2022-11-20T07:35:34;93673.91;;;18.87;nan
6345;BME280;3205;42.666;23.264;2022-11-20T07:38:01;93699.25;;;18.79;nan
6345;BME280;3205;42.666;23.264;2022-11-20T07:40:27;93699.25;;;18.79;nan
6345;BME280;3205;42.666;23.264;2022-11-20T07:42:55;93707.31;;;18.76;nan
6345;BME280;3205;42.666;23.264;2022-11-20T07:45:23;93701.09;;;18.86;nan
6345;BME280;3205;42.666;23.264;2022-11-20T07:47:50;93689.22;;;18.87;nan
6345;BME280;3205;42.666;23.264;2022-11-20T07:50:18;93696.47;;;18.86;nan
6345;BME280;3205;42.666;23.264;2022-11-20T07:52:46;93698.75;;;18.91;nan
6345;BME280;3205;42.666;23.264;2022-11-20T07:55:14;93718.53;;;19.01;nan
6345;BME280;3205;42.666;23.264;2022-11-20T07:57:41;93741.03;;;19.10;nan
6345;BME280;3205;42.666;23.264;2022-11-20T08:00:10;93758.59;;;19.15;nan
6345;BME280;3205;42.666;23.264;2022-11-20T08:02:37;93720.56;;;19.23;nan
6345;BME280;3205;42.666;23.264;2022-11-20T08:05:05;93742.34;;;19.29;nan
6345;BME280;3205;42.666;23.264;2022-11-20T08:07:35;93728.81;;;19.39;nan
6345;BME280;3205;42.666;23.264;2022-11-20T08:10:05;93732.22;;;19.39;nan
6345;BME280;3205;42.666;23.264;2022-11-20T08:12:32;93746.38;;;19.40;nan
6345;BME280;3205;42.666;23.264;2022-11-20T08:15:17;93735.59;;;19.73;nan
6345;BME280;3205;42.666;23.264;2022-11-20T08:17:43;93732.59;;;19.98;nan
6345;BME280;3205;42.666;23.264;2022-11-20T08:20:10;93744.41;;;20.49;nan
6345;BME280;3205;42.666;23.264;2022-11-20T08:22:37;93728.63;;;20.74;nan
6345;BME280;3205;42.666;23.264;2022-11-20T08:25:06;93753.44;;;20.82;nan
6345;BME280;3205;42.666;23.264;2022-11-20T08:27:33;93747.53;;;20.90;nan
6345;BME280;3205;42.666;23.264;2022-11-20T08:29:59;93738.13;;;21.21;nan
6345;BME280;3205;42.666;23.264;2022-11-20T08:32:26;93756.91;;;21.40;nan
6345;BME280;3205;42.666;23.264;2022-11-20T08:34:53;93747.09;;;21.34;nan
6345;BME280;3205;42.666;23.264;2022-11-20T08:37:20;93755.47;;;20.78;nan
6345;BME280;3205;42.666;23.264;2022-11-20T08:39:46;93767.50;;;20.43;nan
6345;BME280;3205;42.666;23.264;2022-11-20T08:42:14;93774.34;;;20.48;nan
6345;BME280;3205;42.666;23.264;2022-11-20T08:44:41;93814.72;;;20.14;nan
6345;BME280;3205;42.666;23.264;2022-11-20T08:47:10;93801.63;;;19.31;nan
6345;BME280;3205;42.666;23.264;2022-11-20T08:49:37;93763.94;;;18.74;nan
6345;BME280;3205;42.666;23.264;2022-11-20T08:52:03;93790.00;;;18.27;nan
6345;BME280;3205;42.666;23.264;2022-11-20T08:54:30;93754.03;;;18.31;nan
6345;BME280;3205;42.666;23.264;2022-11-20T08:56:57;93743.09;;;18.08;nan
6345;BME280;3205;42.666;23.264;2022-11-20T08:59:25;93728.88;;;18.22;nan
6345;BME280;3205;42.666;23.264;2022-11-20T09:01:52;93734.03;;;17.95;nan
6345;BME280;3205;42.666;23.264;2022-11-20T09:04:19;93757.66;;;18.00;nan
6345;BME280;3205;42.666;23.264;2022-11-20T09:06:46;93761.03;;;18.11;nan
6345;BME280;3205;42.666;23.264;2022-11-20T09:09:16;93759.84;;;18.23;nan
6345;BME280;3205;42.666;23.264;2022-11-20T09:11:44;93759.25;;;17.91;nan
6345;BME280;3205;42.666;23.264;2022-11-20T09:14:11;93775.84;;;17.69;nan
6345;BME280;3205;42.666;23.264;2022-11-20T09:16:40;93777.75;;;17.68;nan
6345;BME280;3205;42.666;23.264;2022-11-20T09:19:07;93753.09;;;17.36;nan
6345;BME280;3205;42.666;23.264;2022-11-20T09:21:33;93765.44;;;16.99;nan
6345;BME280;3205;42.666;23.264;2022-11-20T09:24:00;93751.00;;;16.76;nan
6345;BME280;3205;42.666;23.264;2022-11-20T09:26:27;93731.97;;;16.74;nan
6345;BME280;3205;42.666;23.264;2022-11-20T09:28:54;93739.97;;;16.74;nan
6345;BME280;3205;42.666;23.264;2022-11-20T09:31:22;93730.75;;;16.92;nan
6345;BME280;3205;42.666;23.264;2022-11-20T09:33:52;93712.75;;;17.10;nan
6345;BME280;3205;42.666;23.264;2022-11-20T09:36:19;93710.53;;;17.02;nan
6345;BME280;3205;42.666;23.264;2022-11-20T09:38:46;93683.41;;;17.03;nan
6345;BME280;3205;42.666;23.264;2022-11-20T09:41:36;93665.38;;;17.28;nan
6345;BME280;3205;42.666;23.264;2022-11-20T09:44:20;93673.22;;;17.56;nan
6345;BME280;3205;42.666;23.264;2022-11-20T09:46:55;93681.69;;;17.94;nan
6345;BME280;3205;42.666;23.264;2022-11-20T09:49:32;93693.03;;;18.12;nan
6345;BME280;3205;42.666;23.264;2022-11-20T09:52:14;93684.44;;;18.71;nan
6345;BME280;3205;42.666;23.264;2022-11-20T09:54:44;93684.09;;;18.99;nan
6345;BME280;3205;42.666;23.264;2022-11-20T09:57:15;93689.16;;;19.24;nan
6345;BME280;3205;42.666;23.264;2022-11-20T09:59:46;93687.53;;;19.59;nan
6345;BME280;3205;42.666;23.264;2022-11-20T10:02:23;93694.47;;;19.83;nan
6345;BME280;3205;42.666;23.264;2022-11-20T10:04:57;93685.06;;;20.21;nan
6345;BME280;3205;42.666;23.264;2022-11-20T10:07:30;93719.72;;;20.58;nan
6345;BME280;3205;42.666;23.264;2022-11-20T10:10:01;93700.81;;;20.84;nan
6345;BME280;3205;42.666;23.264;2022-11-20T10:12:36;93732.59;;;20.89;nan
6345;BME280;3205;42.666;23.264;2022-11-20T10:15:27;93715.50;;;20.99;nan
6345;BME280;3205;42.666;23.264;2022-11-20T10:18:09;93714.47;;;20.28;nan
6345;BME280;3205;42.666;23.264;2022-11-20T10:20:45;93717.53;;;19.77;nan
6345;BME280;3205;42.666;23.264;2022-11-20T10:23:24;93719.28;;;19.35;nan
6345;BME280;3205;42.666;23.264;2022-11-20T10:26:00;93724.38;;;18.89;nan
6345;BME280;3205;42.666;23.264;2022-11-20T10:28:40;93705.16;;;18.64;nan
6345;BME280;3205;42.666;23.264;2022-11-20T10:31:20;93692.50;;;18.68;nan
6345;BME280;3205;42.666;23.264;2022-11-20T10:33:52;93690.53;;;18.35;nan
6345;BME280;3205;42.666;23.264;2022-11-20T10:36:25;93692.88;;;18.33;nan
6345;BME280;3205;42.666;23.264;2022-11-20T10:38:57;93679.03;;;18.38;nan
6345;BME280;3205;42.666;23.264;2022-11-20T10:41:27;93680.25;;;18.30;nan
6345;BME280;3205;42.666;23.264;2022-11-20T10:44:02;93677.19;;;18.32;nan
6345;BME280;3205;42.666;23.264;2022-11-20T10:46:36;93656.19;;;18.30;nan
6345;BME280;3205;42.666;23.264;2022-11-20T10:49:12;93666.59;;;18.18;nan
6345;BME280;3205;42.666;23.264;2022-11-20T10:51:52;93666.72;;;18.04;nan
6345;BME280;3205;42.666;23.264;2022-11-20T10:54:29;93670.00;;;17.75;nan
6345;BME280;3205;42.666;23.264;2022-11-20T10:57:05;93672.47;;;17.55;nan
6345;BME280;3205;42.666;23.264;2022-11-20T10:59:51;93688.25;;;17.25;nan
6345;BME280;3205;42.666;23.264;2022-11-20T11:02:21;93728.88;;;16.86;nan
6345;BME280;3205;42.666;23.264;2022-11-20T11:04:50;93783.13;;;16.34;nan
6345;BME280;3205;42.666;23.264;2022-11-20T11:07:22;93754.44;;;15.51;nan
6345;BME280;3205;42.666;23.264;2022-11-20T11:09:54;93732.66;;;15.18;nan
6345;BME280;3205;42.666;23.264;2022-11-20T11:12:23;93731.31;;;14.63;nan
6345;BME280;3205;42.666;23.264;2022-11-20T11:14:52;93715.22;;;14.39;nan
6345;BME280;3205;42.666;23.264;2022-11-20T11:17:24;93691.13;;;14.14;nan
6345;BME280;3205;42.666;23.264;2022-11-20T11:20:01;93702.88;;;14.13;nan
6345;BME280;3205;42.666;23.264;2022-11-20T11:22:31;93708.09;;;14.00;nan
6345;BME280;3205;42.666;23.264;2022-11-20T11:24:59;93681.78;;;13.84;nan
6345;BME280;3205;42.666;23.264;2022-11-20T11:27:26;93664.28;;;13.76;nan
6345;BME280;3205;42.666;23.264;2022-11-20T11:30:12;93673.00;;;13.80;nan
6345;BME280;3205;42.666;23.264;2022-11-20T11:32:40;93680.19;;;13.73;nan
6345;BME280;3205;42.666;23.264;2022-11-20T11:35:19;93658.56;;;13.74;nan
6345;BME280;3205;42.666;23.264;2022-11-20T11:37:47;93641.84;;;13.70;nan
6345;BME280;3205;42.666;23.264;2022-11-20T11:40:17;93646.88;;;13.86;nan
6345;BME280;3205;42.666;23.264;2022-11-20T11:42:54;93635.50;;;13.85;nan
6345;BME280;3205;42.666;23.264;2022-11-20T11:45:23;93671.94;;;13.88;nan
6345;BME280;3205;42.666;23.264;2022-11-20T11:47:50;93675.78;;;13.94;nan
6345;BME280;3205;42.666;23.264;2022-11-20T11:50:22;93680.34;;;13.97;nan
6345;BME280;3205;42.666;23.264;2022-11-20T11:52:56;93660.28;;;14.03;nan
6345;BME280;3205;42.666;23.264;2022-11-20T11:55:30;93662.31;;;14.20;nan
6345;BME280;3205;42.666;23.264;2022-11-20T11:58:08;93675.28;;;14.32;nan
6345;BME280;3205;42.666;23.264;2022-11-20T12:00:38;93660.94;;;14.47;nan
6345;BME280;3205;42.666;23.264;2022-11-20T12:03:13;93675.47;;;14.74;nan
6345;BME280;3205;42.666;23.264;2022-11-20T12:05:45;93692.25;;;14.91;nan
6345;BME280;3205;42.666;23.264;2022-11-20T12:08:19;93675.91;;;14.96;nan
6345;BME280;3205;42.666;23.264;2022-11-20T12:10:51;93644.38;;;14.95;nan
6345;BME280;3205;42.666;23.264;2022-11-20T12:13:36;93673.66;;;15.02;nan
6345;BME280;3205;42.666;23.264;2022-11-20T12:16:11;93675.19;;;15.03;nan
6345;BME280;3205;42.666;23.264;2022-11-20T12:18:39;93698.38;;;15.02;nan
6345;BME280;3205;42.666;23.264;2022-11-20T12:21:17;93662.63;;;15.03;nan
6345;BME280;3205;42.666;23.264;2022-11-20T12:23:56;93695.38;;;15.11;nan
6345;BME280;3205;42.666;23.264;2022-11-20T12:26:40;93705.66;;;15.19;nan
6345;BME280;3205;42.666;23.264;2022-11-20T12:29:15;93717.78;;;14.99;nan
6345;BME280;3205;42.666;23.264;2022-11-20T12:31:55;93704.41;;;14.89;nan
6345;BME280;3205;42.666;23.264;2022-11-20T12:34:41;93663.25;;;14.55;nan
6345;BME280;3205;42.666;23.264;2022-11-20T12:37:19;93642.69;;;14.49;nan
6345;BME280;3205;42.666;23.264;2022-11-20T12:39:54;93636.31;;;14.67;nan
6345;BME280;3205;42.666;23.264;2022-11-20T12:42:39;93623.44;;;14.83;nan
6345;BME280;3205;42.666;23.264;2022-11-20T12:45:40;93621.59;;;15.18;nan
6345;BME280;3205;42.666;23.264;2022-11-20T12:48:29;93613.28;;;15.51;nan
6345;BME280;3205;42.666;23.264;2022-11-20T12:51:14;93607.94;;;15.72;nan
6345;BME280;3205;42.666;23.264;2022-11-20T12:53:54;93614.03;;;15.72;nan
6345;BME280;3205;42.666;23.264;2022-11-20T12:56:36;93613.66;;;15.81;nan
6345;BME280;3205;42.666;23.264;2022-11-20T12:59:22;93626.59;;;15.68;nan
6345;BME280;3205;42.666;23.264;2022-11-20T13:01:58;93639.91;;;15.79;nan
6345;BME280;3205;42.666;23.264;2022-11-20T13:04:46;93655.13;;;15.96;nan
6345;BME280;3205;42.666;23.264;2022-11-20T13:07:16;93667.28;;;16.07;nan
6345;BME280;3205;42.666;23.264;2022-11-20T13:09:46;93632.31;;;15.57;nan
6345;BME280;3205;42.666;23.264;2022-11-20T13:12:17;93647.53;;;15.39;nan
6345;BME280;3205;42.666;23.264;2022-11-20T13:14:53;93651.44;;;14.49;nan
6345;BME280;3205;42.666;23.264;2022-11-20T13:17:30;93620.13;;;14.15;nan
6345;BME280;3205;42.666;23.264;2022-11-20T13:20:02;93626.53;;;14.07;nan
6345;BME280;3205;42.666;23.264;2022-11-20T13:22:43;93626.59;;;14.17;nan
6345;BME280;3205;42.666;23.264;2022-11-20T13:25:10;93645.22;;;14.24;nan
6345;BME280;3205;42.666;23.264;2022-11-20T13:27:49;93652.06;;;14.25;nan
6345;BME280;3205;42.666;23.264;2022-11-20T13:30:18;93670.69;;;14.25;nan
6345;BME280;3205;42.666;23.264;2022-11-20T13:32:52;93655.91;;;14.31;nan
6345;BME280;3205;42.666;23.264;2022-11-20T13:35:26;93658.22;;;14.33;nan
6345;BME280;3205;42.666;23.264;2022-11-20T13:38:01;93644.16;;;14.36;nan
6345;BME280;3205;42.666;23.264;2022-11-20T13:40:29;93656.38;;;14.47;nan
6345;BME280;3205;42.666;23.264;2022-11-20T13:43:08;93651.84;;;14.58;nan
6345;BME280;3205;42.666;23.264;2022-11-20T13:45:37;93662.13;;;14.56;nan
6345;BME280;3205;42.666;23.264;2022-11-20T13:48:22;93674.28;;;14.61;nan